METAR Data
IDs: Format: Raw Decoded Include TAF

Data at: 1817 UTC 23 Apr 2019

KSAF 231814Z 27005KT 10SM -RA FEW012 BKN030 OVC035 08/06 A3016 RMK AO2 P0000 T00830056
KSAF 231753Z 24005KT 10SM -RA FEW011 SCT018 OVC024 08/06 A3017 RMK AO2 SLP176 P0000 60009 T00830056 10083 20061 50002
KSAF 231723Z 00000KT 10SM -RA SCT015 BKN027 OVC038 08/04 A3017 RMK AO2 P0000 T00780044
KSAF 231653Z 34007KT 10SM -RA FEW022 OVC040 08/06 A3017 RMK AO2 SLP169 P0005 T00830056
KSAF 231646Z 34006KT 10SM -RA SCT022 OVC040 08/06 A3017 RMK AO2 P0005 T00780061
KSAF 231629Z 35007KT 5SM -RA BR FEW017 BKN023 OVC043 07/06 A3017 RMK AO2 P0005 T00720056
KSAF 231615Z 33007KT 4SM RA BR FEW015 SCT026 OVC032 07/05 A3017 RMK AO2 P0003 T00720050
KSAF 231553Z 35006KT 6SM RA BR SCT013 BKN026 OVC031 07/05 A3017 RMK AO2 RAB28 SLP173 P0003 T00720050
KSAF 231527Z 36004KT 10SM BKN013 OVC021 08/05 A3016 RMK AO2 T00780050
KSAF 231453Z 34005KT 10SM FEW010 BKN019 OVC026 07/05 A3016 RMK AO2 SLP162 60001 T00720050 51008
KSAF 231429Z 35007KT 10SM OVC019 07/05 A3016 RMK AO2 T00720050
KSAF 231357Z 01005KT 10SM BKN013 BKN022 OVC042 07/05 A3015 RMK AO2 T00670050
KSAF 231353Z 01006KT 10SM SCT010 SCT016 OVC042 07/05 A3015 RMK AO2 RAE26 SLP161 P0000 T00670050
KSAF 231253Z 02005KT 10SM -RA FEW010 OVC036 06/05 A3014 RMK AO2 RAE03B19 SLP155 P0001 T00610050
KSAF 231153Z AUTO 01009KT 10SM -RA OVC042 06/05 A3013 RMK AO2 RAE27B42 SLP146 P0001 60015 70027 T00610050 10067 20056 58003
KSAF 231137Z AUTO 01006KT 10SM SCT015 OVC043 06/05 A3013 RMK AO2 RAE27 P0001 T00610050
KSAF 231114Z AUTO 35006KT 10SM -RA SCT008 OVC015 06/06 A3013 RMK AO2 P0001 T00610056
KSAF 231053Z AUTO 36005KT 10SM -RA FEW007 BKN013 OVC048 06/05 A3014 RMK AO2 RAB0957 SLP144 P0000 T00610050
KSAF 231030Z AUTO 36010KT 10SM -RA FEW008 BKN060 OVC070 06/05 A3013 RMK AO2 RAB0957 P0000 T00610050
KSAF 230953Z AUTO 35005KT 10SM SCT060 OVC075 06/04 A3013 RMK AO2 RAE30 SLP141 P0002 T00610044
KSAF 230853Z AUTO 10005KT 9SM -RA OVC037 06/04 A3014 RMK AO2 SLP142 P0004 60012 T00610044 58014
KSAF 230753Z AUTO 09005KT 10SM -RA FEW037 BKN060 OVC070 06/04 A3017 RMK AO2 RAE35B52 SLP151 P0002 T00610044
KSAF 230653Z AUTO 11013KT 7SM -RA OVC037 06/04 A3017 RMK AO2 SLP154 P0006 T00610044 401890017
KSAF 230602Z AUTO 12015KT 6SM RA BR FEW006 SCT015 OVC034 06/05 A3018 RMK AO2 P0002 T00610050
KSAF 230553Z AUTO 13013KT 5SM RA BR SCT007 BKN013 OVC034 06/05 A3019 RMK AO2 SLP159 P0008 60012 T00610050 10144 20061 51016
KSAF 230537Z AUTO 14012G20KT 6SM -RA BR BKN007 BKN013 OVC027 07/06 A3018 RMK AO2 P0005 T00670056
KSAF 230515Z AUTO 16013G19KT 6SM -RA BR SCT009 BKN021 OVC040 07/06 A3018 RMK AO2 P0002 T00720061
KSAF 230453Z AUTO 12009KT 10SM -RA FEW030 OVC042 09/06 A3016 RMK AO2 SLP146 P0001 T00890061
KSAF 230432Z AUTO 22003KT 10SM -RA SCT029 OVC040 09/06 A3016 RMK AO2 P0001 T00890061
KSAF 230405Z AUTO 27008KT 10SM -RA OVC029 08/06 A3015 RMK AO2 P0000 T00780061
KSAF 230353Z AUTO 25009KT 9SM -RA SCT026 OVC031 08/06 A3016 RMK AO2 WSHFT 0247 LTG DSNT N RAB15 SLP149 P0003 T00780061
KSAF 230307Z AUTO 24011G20KT 10SM FEW023 BKN035 OVC090 09/05 A3014 RMK AO2 WSHFT 0247 T00890050
KSAF 230300Z AUTO 24015G20KT 10SM SCT036 BKN075 OVC090 09/05 A3013 RMK AO2 WSHFT 0240 T00940050
KSAF 230253Z AUTO 21012G19KT 180V240 10SM BKN075 OVC095 12/03 A3013 RMK AO2 PK WND 11028/0230 WSHFT 0237 PRESRR SLP134 T01170033 53018
KSAF 230153Z 12016G21KT 10SM OVC100 12/03 A3007 RMK AO2 SLP124 T01220028
KSAF 230053Z 10014G22KT 10SM SCT120 13/02 A3006 RMK AO2 PK WND 11030/2356 SLP131 T01330017
KSAF 222353Z 12020G28KT 10SM BKN110 14/01 A3007 RMK AO2 PK WND 15031/2323 SLP130 T01440006 10183 20144 55009
KSAF 222253Z 13027G34KT 10SM FEW120 17/01 A3006 RMK AO2 PK WND 13034/2252 SLP123 T01670006
KSAF 222153Z 12021G27KT 10SM CLR 17/00 A3007 RMK AO2 PK WND 15030/2054 SLP119 T01720000
KSAF 222053Z 13016G28KT 10SM FEW060 18/01 A3010 RMK AO2 PK WND 15031/2020 SLP120 T01780011 58007
KSAF 221953Z 14018G27KT 10SM OVC100 18/01 A3010 RMK AO2 PK WND 15030/1900 SLP125 T01780011
KSAF 221853Z 14019G30KT 10SM FEW110 18/02 A3012 RMK AO2 PK WND 15033/1807 SLP127 T01780022
KSAF 221753Z 15018G25KT 10SM BKN100 18/00 A3012 RMK AO2 SLP128 T01780000 10189 20017 55000
KSAF 221653Z 16017G22KT 10SM CLR 18/M01 A3012 RMK AO2 SLP128 T01781011
KSAF 221553Z 15015G20KT 10SM CLR 17/M01 A3012 RMK AO2 SLP129 T01671011
KSAF 221453Z 13013KT 10SM CLR 15/M01 A3012 RMK AO2 SLP122 T01501011 50015
KSAF 221353Z 17005KT 10SM CLR 10/M04 A3012 RMK AO2 SLP126 T01001039
KSAF 221253Z 36004KT 10SM CLR 04/M06 A3009 RMK AO2 SLP131 T00391061
KSAF 221153Z AUTO 01004KT 10SM CLR 04/M05 A3007 RMK AO2 SLP117 T00391050 10111 20028 51004
KSAF 221053Z AUTO 02005KT 10SM CLR 04/M05 A3006 RMK AO2 SLP111 T00441050
KSAF 220953Z AUTO 36005KT 10SM FEW120 06/M04 A3006 RMK AO2 SLP107 T00561044
KSAF 220853Z AUTO 01003KT 10SM FEW120 09/M04 A3005 RMK AO2 SLP096 T00941044 50009
KSAF 220753Z AUTO 34005KT 10SM SCT120 09/M05 A3005 RMK AO2 SLP099 T00891050
KSAF 220653Z AUTO 00000KT 10SM CLR 10/M04 A3004 RMK AO2 SLP092 T01001044 402220011